Time;durP1;ratioP1;P1;durP2;ratioP2;P2;SDS_P1;SDS_P2;PMS_P1;PMS_P2;Temp;Humidity;BMP_temperature;BMP_pressure;BME280_temperature;BME280_humidity;BME280_pressure;Samples;Min_cycle;Max_cycle;Signal;HPM_P1;HPM_P2
2023/08/19 10:23:11;;;;;;;9.10;5.00;;;;;;;34.47;40.76;100689.09;102864;1294;600090;-70
2023/08/19 10:25:41;;;;;;;9.20;4.90;;;;;;;34.55;39.72;100688.66;105161;1267;59181;-70
2023/08/19 10:28:13;;;;;;;9.80;4.70;;;;;;;34.67;40.08;100687.45;105061;1264;59381;-70
2023/08/19 10:30:41;;;;;;;8.00;4.60;;;;;;;34.84;39.82;100684.98;105288;1258;63308;-70
2023/08/19 10:33:49;;;;;;;5.90;4.40;;;;;;;35.03;38.37;100685.38;105575;1263;59230;-70
2023/08/19 10:36:17;;;;;;;8.60;4.60;;;;;;;35.22;37.87;100690.34;105343;1257;202832;-69
2023/08/19 10:39:07;;;;;;;6.10;4.70;;;;;;;35.33;38.00;100687.18;105480;1257;59707;-71
2023/08/19 10:41:37;;;;;;;6.80;4.80;;;;;;;35.48;37.94;100686.56;105762;1254;59241;-68
2023/08/19 10:52:05;;;;;;;11.80;4.60;;;;;;;35.95;36.41;100679.63;102725;1292;600113;-70
2023/08/19 10:54:40;;;;;;;11.80;4.30;;;;;;;36.16;36.09;100677.87;104838;1267;59273;-70
2023/08/19 10:57:24;;;;;;;6.40;4.50;;;;;;;36.32;35.63;100678.54;104734;1275;59366;-70
2023/08/19 10:59:56;;;;;;;8.40;4.30;;;;;;;36.47;35.33;100674.32;105039;1269;63225;-71
2023/08/19 11:02:24;;;;;;;6.70;4.10;;;;;;;36.61;34.91;100675.20;105929;1267;59126;-70
2023/08/19 11:04:52;;;;;;;7.30;4.20;;;;;;;36.76;35.20;100673.03;105432;1264;228375;-69
2023/08/19 11:07:20;;;;;;;7.10;4.60;;;;;;;36.87;34.74;100670.81;105121;1269;59313;-72
2023/08/19 11:09:48;;;;;;;6.10;4.30;;;;;;;36.94;34.66;100672.02;105203;1269;59492;-71
2023/08/19 11:12:21;;;;;;;7.20;4.50;;;;;;;36.98;33.24;100673.42;104944;1263;62091;-70
2023/08/19 11:14:51;;;;;;;;;;;;;;;36.96;33.35;100671.79;105307;1263;59358;-70
2023/08/19 11:17:26;;;;;;;10.50;4.10;;;;;;;37.01;33.74;100665.89;105029;1264;65419;-70
2023/08/19 11:20:11;;;;;;;7.20;4.10;;;;;;;37.13;33.48;100664.33;102626;1295;599909;-70
2023/08/19 11:30:18;;;;;;;5.40;4.10;;;;;;;37.79;32.84;100660.73;102654;1293;600631;-70
2023/08/19 11:32:46;;;;;;;8.10;4.10;;;;;;;37.91;32.30;100660.63;104878;1267;59360;-70
2023/08/19 11:35:14;;;;;;;8.20;3.70;;;;;;;38.01;32.16;100656.89;104882;1266;59290;-71
2023/08/19 11:37:42;;;;;;;8.80;3.90;;;;;;;38.10;31.77;100653.72;104791;1272;63413;-70
2023/08/19 11:40:13;;;;;;;9.40;4.30;;;;;;;38.15;31.74;100651.28;104878;1267;59269;-70
2023/08/19 11:43:09;;;;;;;11.60;3.60;;;;;;;38.25;31.35;100653.86;104654;1266;212893;-70
2023/08/19 11:45:37;;;;;;;8.70;3.70;;;;;;;38.40;31.25;100645.99;104710;1266;59308;-70
2023/08/19 11:55:42;;;;;;;7.90;4.00;;;;;;;38.81;30.72;100635.71;102568;1292;600810;-70
2023/08/19 11:58:10;;;;;;;9.60;3.90;;;;;;;38.86;30.80;100632.20;104737;1275;59263;-71
2023/08/19 12:00:37;;;;;;;9.90;4.00;;;;;;;38.95;30.76;100633.84;104980;1266;59360;-70
2023/08/19 12:10:45;;;;;;;8.90;3.80;;;;;;;39.29;29.92;100630.66;102724;1297;600780;-71
2023/08/19 12:13:14;;;;;;;6.10;3.40;;;;;;;39.38;30.53;100631.88;104934;1269;59247;-70
2023/08/19 12:15:41;;;;;;;8.20;3.70;;;;;;;39.48;30.25;100625.03;104858;1273;59282;-70
2023/08/19 12:18:18;;;;;;;6.90;3.50;;;;;;;39.55;30.29;100625.62;105047;1270;62072;-71
2023/08/19 12:20:46;;;;;;;15.30;4.00;;;;;;;39.64;29.77;100626.59;104856;1267;59356;-71
2023/08/19 12:23:14;;;;;;;4.90;3.20;;;;;;;39.72;29.21;100627.34;104593;1268;245965;-71
2023/08/19 12:25:55;;;;;;;5.00;3.10;;;;;;;39.72;29.34;100629.23;105108;1264;59307;-70
2023/08/19 12:28:23;;;;;;;5.80;3.10;;;;;;;39.72;28.76;100630.06;104984;1264;60108;-70
2023/08/19 12:30:51;;;;;;;9.40;3.20;;;;;;;39.78;28.89;100629.33;105138;1264;62075;-71
2023/08/19 12:33:19;;;;;;;5.90;3.20;;;;;;;39.85;29.20;100628.11;106169;1263;59301;-72
2023/08/19 12:35:48;;;;;;;4.10;3.00;;;;;;;39.89;28.58;100626.91;105456;1257;62512;-70
2023/08/19 12:38:18;;;;;;;4.50;2.90;;;;;;;39.92;28.36;100622.25;105663;1260;59588;-69
2023/08/19 12:40:46;;;;;;;6.10;2.80;;;;;;;39.96;28.53;100625.38;105590;1258;59685;-70
2023/08/19 12:43:14;;;;;;;4.90;3.10;;;;;;;40.06;27.94;100621.52;109085;1257;64186;-70
2023/08/19 12:45:41;;;;;;;3.70;2.80;;;;;;;40.14;27.86;100622.38;109257;1256;58377;-71
2023/08/19 12:48:10;;;;;;;4.50;2.90;;;;;;;40.16;27.50;100620.67;109163;1256;63858;-71
2023/08/19 12:50:37;;;;;;;5.10;2.90;;;;;;;40.12;27.65;100617.17;109190;1256;57455;-71
2023/08/19 12:53:06;;;;;;;4.10;3.00;;;;;;;40.15;27.91;100615.11;109234;1257;57182;-71
2023/08/19 12:55:33;;;;;;;6.90;3.30;;;;;;;40.28;27.53;100617.33;109177;1257;62988;-70
2023/08/19 12:58:01;;;;;;;7.80;3.10;;;;;;;40.40;27.18;100614.73;109165;1257;58130;-71
2023/08/19 13:00:28;;;;;;;4.40;3.20;;;;;;;40.43;27.01;100616.41;109165;1257;62485;-71
2023/08/19 13:02:56;;;;;;;4.20;2.70;;;;;;;40.47;27.00;100614.27;109165;1256;57269;-71
2023/08/19 13:05:24;;;;;;;4.50;2.80;;;;;;;40.36;27.04;100612.38;109227;1257;57239;-70
2023/08/19 13:07:53;;;;;;;9.20;3.10;;;;;;;40.31;27.06;100611.97;109210;1257;62911;-70
2023/08/19 13:10:21;;;;;;;6.20;2.90;;;;;;;40.31;26.63;100605.45;109202;1258;57390;-71
2023/08/19 13:12:49;;;;;;;4.50;3.10;;;;;;;40.26;26.83;100608.08;109186;1257;63768;-71
2023/08/19 13:15:18;;;;;;;4.20;3.00;;;;;;;40.34;27.24;100603.00;109169;1256;57392;-70
2023/08/19 13:17:46;;;;;;;3.90;2.90;;;;;;;40.42;27.62;100606.17;109160;1256;57417;-71
2023/08/19 13:20:17;;;;;;;4.50;3.40;;;;;;;40.42;27.16;100608.23;109139;1257;64150;-70
2023/08/19 13:22:46;;;;;;;5.30;2.90;;;;;;;40.36;27.30;100606.44;109212;1256;57332;-70
2023/08/19 13:25:13;;;;;;;5.40;3.00;;;;;;;40.42;27.24;100607.63;109158;1256;64047;-71
2023/08/19 13:27:41;;;;;;;6.20;3.30;;;;;;;40.53;27.53;100605.70;109159;1257;57340;-71
2023/08/19 13:30:10;;;;;;;4.90;3.10;;;;;;;40.63;27.30;100605.01;109159;1256;57418;-71
2023/08/19 13:32:37;;;;;;;5.00;3.10;;;;;;;40.61;27.25;100604.08;109220;1256;64414;-71
2023/08/19 13:35:08;;;;;;;3.90;3.20;;;;;;;40.61;27.13;100600.16;109211;1257;57830;-71
2023/08/19 13:37:36;;;;;;;5.40;3.20;;;;;;;40.63;26.36;100598.56;109161;1256;63719;-71
2023/08/19 13:40:04;;;;;;;10.60;3.20;;;;;;;40.58;26.88;100600.42;109176;1257;57333;-71
2023/08/19 13:42:32;;;;;;;7.90;3.30;;;;;;;40.59;27.03;100598.11;109176;1256;57395;-71
2023/08/19 13:45:00;;;;;;;4.00;3.10;;;;;;;40.58;26.88;100600.80;109191;1256;64133;-70
2023/08/19 13:47:28;;;;;;;5.30;2.80;;;;;;;40.56;26.38;100598.75;109149;1257;58196;-70
2023/08/19 13:49:55;;;;;;;5.70;3.40;;;;;;;40.67;26.79;100598.29;109200;1256;63734;-70
2023/08/19 13:52:49;;;;;;;4.30;3.20;;;;;;;40.78;26.60;100598.20;109179;1256;57333;-70
2023/08/19 13:55:17;;;;;;;5.80;3.20;;;;;;;40.85;25.96;100598.75;109099;1258;57324;-71
2023/08/19 13:57:45;;;;;;;7.40;3.40;;;;;;;40.88;26.10;100593.45;109137;1257;64141;-70
2023/08/19 14:00:15;;;;;;;6.20;3.30;;;;;;;40.88;26.50;100592.48;109190;1257;58275;-70
2023/08/19 14:02:44;;;;;;;9.10;3.20;;;;;;;40.91;26.45;100584.86;109466;1254;63912;-70
2023/08/19 14:05:13;;;;;;;6.00;3.00;;;;;;;40.93;26.79;100581.98;109471;1254;57327;-71
2023/08/19 14:07:41;;;;;;;7.50;3.30;;;;;;;40.93;26.51;100581.23;109478;1253;57350;-71
2023/08/19 14:10:10;;;;;;;8.00;3.40;;;;;;;40.96;26.32;100581.54;109449;1253;64124;-71
2023/08/19 14:12:38;;;;;;;5.90;3.30;;;;;;;40.92;26.32;100578.91;109209;1254;58313;-74
2023/08/19 14:15:07;;;;;;;10.60;3.40;;;;;;;40.85;26.46;100580.54;109340;1254;62529;-71
2023/08/19 14:17:35;;;;;;;7.10;3.60;;;;;;;40.83;26.36;100575.33;109449;1254;60982;-72
2023/08/19 14:20:04;;;;;;;6.10;3.30;;;;;;;40.83;26.37;100571.16;109333;1253;57405;-71
2023/08/19 14:22:34;;;;;;;6.20;3.70;;;;;;;40.72;26.75;100571.52;109469;1254;64213;-72
2023/08/19 14:25:02;;;;;;;5.00;3.30;;;;;;;40.60;26.59;100572.89;109475;1253;65801;-71
2023/08/19 14:27:29;;;;;;;8.00;3.30;;;;;;;40.58;26.85;100571.72;109576;1253;62434;-71
2023/08/19 14:29:56;;;;;;;6.30;3.30;;;;;;;40.59;26.64;100568.34;109552;1253;57376;-71
2023/08/19 14:32:24;;;;;;;9.30;3.60;;;;;;;40.61;26.54;100569.97;109480;1254;57283;-72
2023/08/19 14:34:51;;;;;;;6.40;3.40;;;;;;;40.57;26.77;100566.27;109452;1252;62832;-70
2023/08/19 14:37:19;;;;;;;7.80;3.40;;;;;;;40.43;26.72;100562.77;109527;1254;58192;-70
2023/08/19 14:39:46;;;;;;;7.00;3.40;;;;;;;40.23;27.01;100558.66;109655;1253;62574;-73
2023/08/19 14:42:14;;;;;;;6.00;3.50;;;;;;;40.07;27.27;100556.63;109356;1254;57366;-72
2023/08/19 14:44:41;;;;;;;5.60;3.30;;;;;;;40.00;27.08;100559.23;109494;1254;57362;-72
2023/08/19 14:47:08;;;;;;;4.60;3.10;;;;;;;39.99;27.20;100557.44;109479;1254;64123;-71
2023/08/19 14:49:36;;;;;;;5.70;3.40;;;;;;;39.94;26.92;100556.49;109495;1253;58272;-73
2023/08/19 14:52:04;;;;;;;8.20;3.10;;;;;;;39.87;26.90;100556.83;109468;1253;63742;-73
2023/08/19 14:54:32;;;;;;;7.40;3.10;;;;;;;39.75;27.19;100557.98;109430;1254;57348;-71
2023/08/19 14:56:59;;;;;;;4.80;3.40;;;;;;;39.62;27.28;100560.95;109463;1253;57386;-71
2023/08/19 14:59:27;;;;;;;6.60;3.40;;;;;;;39.47;26.91;100559.32;109439;1254;62913;-72
2023/08/19 15:01:55;;;;;;;5.60;3.00;;;;;;;39.37;27.09;100557.04;109444;1254;58129;-72
2023/08/19 15:04:22;;;;;;;9.70;3.50;;;;;;;39.33;27.98;100554.92;109484;1253;62610;-72
2023/08/19 15:06:50;;;;;;;4.40;3.20;;;;;;;39.25;27.57;100553.50;109472;1253;57314;-71
2023/08/19 15:09:18;;;;;;;4.80;3.20;;;;;;;39.16;27.57;100556.27;109412;1254;57433;-71
2023/08/19 15:11:48;;;;;;;5.10;3.30;;;;;;;39.11;27.65;100554.88;109404;1254;64149;-70
2023/08/19 15:14:17;;;;;;;4.60;3.00;;;;;;;39.08;27.93;100554.04;109311;1254;58208;-70
2023/08/19 15:16:44;;;;;;;8.20;3.00;;;;;;;39.02;28.34;100551.86;109332;1254;63761;-69
2023/08/19 15:19:11;;;;;;;5.70;3.40;;;;;;;38.86;28.21;100552.21;109297;1255;57280;-70
2023/08/19 15:21:39;;;;;;;7.10;3.60;;;;;;;38.67;28.77;100552.29;109340;1254;57378;-70
2023/08/19 15:24:07;;;;;;;6.20;3.20;;;;;;;38.58;29.42;100554.10;109330;1254;64067;-72
2023/08/19 15:26:34;;;;;;;5.60;3.40;;;;;;;38.55;29.99;100555.43;109193;1254;58128;-70
2023/08/19 15:29:02;;;;;;;6.10;3.50;;;;;;;38.50;29.47;100550.52;109299;1256;62532;-71
2023/08/19 15:31:32;;;;;;;5.10;3.50;;;;;;;38.38;29.43;100552.21;109327;1254;57297;-71
2023/08/19 15:34:00;;;;;;;5.40;2.80;;;;;;;38.24;30.71;100552.28;109339;1254;57362;-71
2023/08/19 15:36:32;;;;;;;;;;;;;;;38.07;31.81;100552.49;109370;1254;64364;-70
2023/08/19 15:39:00;;;;;;;5.10;3.20;;;;;;;37.84;31.19;100554.95;109189;1254;58132;-71
2023/08/19 15:41:27;;;;;;;4.40;3.20;;;;;;;37.64;31.39;100558.92;109329;1254;64044;-70
2023/08/19 15:43:59;;;;;;;6.20;3.30;;;;;;;37.49;31.25;100556.54;109339;1254;57356;-71
2023/08/19 15:46:28;;;;;;;8.20;3.40;;;;;;;37.35;32.37;100559.48;109325;1254;57177;-70
2023/08/19 15:48:55;;;;;;;5.50;3.10;;;;;;;37.14;33.19;100561.88;109321;1254;75353;-69
2023/08/19 15:51:22;;;;;;;6.60;3.40;;;;;;;36.96;33.22;100563.96;109320;1254;57388;-70
2023/08/19 15:53:50;;;;;;;8.00;3.30;;;;;;;36.73;33.64;100562.30;109271;1255;63740;-70
2023/08/19 15:56:20;;;;;;;6.80;3.20;;;;;;;36.52;34.20;100562.02;109256;1255;57379;-71
2023/08/19 15:58:51;;;;;;;8.40;3.50;;;;;;;36.31;34.75;100564.83;109273;1255;57444;-72
2023/08/19 16:01:18;;;;;;;6.10;3.60;;;;;;;36.07;35.40;100566.73;109265;1256;62893;-69
2023/08/19 16:03:46;;;;;;;8.20;3.70;;;;;;;35.83;36.01;100569.17;109291;1256;58151;-69
2023/08/19 16:06:13;;;;;;;6.30;3.30;;;;;;;35.62;36.60;100567.66;109271;1256;63897;-70
2023/08/19 16:08:41;;;;;;;7.60;3.70;;;;;;;35.40;36.97;100568.75;109257;1254;57308;-71
2023/08/19 16:11:09;;;;;;;5.40;3.40;;;;;;;35.15;37.22;100566.14;109374;1254;57309;-70
2023/08/19 16:13:36;;;;;;;5.90;3.80;;;;;;;34.91;37.43;100565.77;109380;1254;65101;-70
2023/08/19 16:16:07;;;;;;;5.50;3.30;;;;;;;34.68;37.91;100564.05;109240;1254;57391;-69
2023/08/19 16:18:34;;;;;;;9.60;3.70;;;;;;;34.47;38.25;100559.25;109382;1254;62575;-70
2023/08/19 16:21:02;;;;;;;12.80;3.90;;;;;;;34.29;38.64;100558.24;109333;1254;58084;-71
2023/08/19 16:23:31;;;;;;;9.10;3.80;;;;;;;34.09;39.03;100560.71;109361;1254;58229;-70
2023/08/19 16:25:58;;;;;;;8.90;3.90;;;;;;;33.90;39.60;100562.27;109379;1254;63614;-70
2023/08/19 16:28:26;;;;;;;5.50;3.70;;;;;;;33.67;40.09;100560.34;109366;1253;58234;-70
2023/08/19 16:30:54;;;;;;;6.70;3.70;;;;;;;33.45;40.34;100561.70;109406;1254;62512;-71
2023/08/19 16:33:22;;;;;;;6.50;3.60;;;;;;;33.22;40.71;100563.89;109346;1256;58163;-70
2023/08/19 16:35:56;;;;;;;7.10;4.00;;;;;;;32.98;41.15;100567.27;109243;1254;58117;-69
2023/08/19 16:38:25;;;;;;;5.60;4.10;;;;;;;32.74;41.59;100566.11;109434;1254;65105;-70
2023/08/19 16:40:53;;;;;;;7.20;3.60;;;;;;;32.51;41.74;100565.79;109379;1254;58153;-70
2023/08/19 16:43:21;;;;;;;9.10;4.00;;;;;;;32.30;42.17;100563.95;109368;1254;62451;-70
2023/08/19 16:45:58;;;;;;;9.10;4.40;;;;;;;32.09;42.70;100557.15;109370;1254;58150;-71
2023/08/19 16:48:25;;;;;;;6.50;4.10;;;;;;;31.89;42.94;100556.59;109344;1254;58063;-69
2023/08/19 16:50:53;;;;;;;8.30;4.30;;;;;;;31.71;43.35;100557.19;109395;1254;64955;-70
2023/08/19 16:53:21;;;;;;;9.00;4.20;;;;;;;31.53;44.02;100553.16;109376;1256;58226;-69
2023/08/19 16:55:59;;;;;;;7.80;3.90;;;;;;;31.38;44.38;100556.10;109205;1256;63777;-68
2023/08/19 16:58:26;;;;;;;8.70;4.20;;;;;;;31.22;44.70;100556.60;109182;1255;58184;-68
2023/08/19 17:01:05;;;;;;;6.20;4.30;;;;;;;31.04;45.05;100558.04;109375;1256;58195;-70
2023/08/19 17:03:33;;;;;;;6.20;4.50;;;;;;;30.87;45.49;100557.69;109354;1254;64907;-69
2023/08/19 17:06:01;;;;;;;8.60;4.50;;;;;;;30.71;45.79;100562.16;109356;1257;58248;-70
2023/08/19 17:08:31;;;;;;;8.20;4.50;;;;;;;30.56;46.13;100561.80;109339;1256;63757;-70
2023/08/19 17:10:59;;;;;;;6.40;4.50;;;;;;;30.43;46.48;100561.36;109339;1256;58110;-69
2023/08/19 17:13:27;;;;;;;7.30;4.40;;;;;;;30.31;46.79;100560.78;109209;1256;58118;-70
2023/08/19 17:15:55;;;;;;;6.40;4.40;;;;;;;30.15;47.13;100561.33;109309;1256;63731;-70
2023/08/19 17:18:23;;;;;;;7.90;4.60;;;;;;;29.99;47.67;100562.94;109330;1256;58213;-69
2023/08/19 17:20:52;;;;;;;9.70;4.80;;;;;;;29.83;47.97;100563.26;109192;1256;63712;-71
2023/08/19 17:23:20;;;;;;;7.30;4.70;;;;;;;29.69;48.48;100562.23;109332;1256;58144;-69
2023/08/19 17:25:48;;;;;;;7.20;4.60;;;;;;;29.57;48.72;100561.23;109475;1255;58193;-69
2023/08/19 17:28:15;;;;;;;13.90;4.80;;;;;;;29.46;49.03;100562.88;109353;1255;64919;-69
2023/08/19 17:30:43;;;;;;;9.40;5.00;;;;;;;29.33;49.31;100567.85;109363;1254;58187;-69
2023/08/19 17:33:11;;;;;;;9.80;4.80;;;;;;;29.22;49.55;100570.81;109345;1256;63751;-70
2023/08/19 17:35:39;;;;;;;8.60;4.90;;;;;;;29.10;50.04;100570.96;109303;1256;58162;-69
2023/08/19 17:38:07;;;;;;;8.70;4.60;;;;;;;28.98;50.43;100572.65;109349;1256;58261;-70
2023/08/19 17:40:35;;;;;;;7.40;5.00;;;;;;;28.86;50.69;100574.18;109342;1255;65002;-71
2023/08/19 17:43:03;;;;;;;8.80;5.10;;;;;;;28.76;51.07;100579.55;109329;1256;58239;-72
2023/08/19 17:45:30;;;;;;;10.10;4.90;;;;;;;28.67;51.36;100576.24;109338;1255;62556;-72
2023/08/19 17:47:58;;;;;;;7.90;5.00;;;;;;;28.58;51.56;100578.02;109283;1256;58091;-70
2023/08/19 17:50:25;;;;;;;8.90;5.30;;;;;;;28.47;52.07;100579.25;109371;1254;58121;-70
2023/08/19 17:52:53;;;;;;;8.30;5.00;;;;;;;28.38;52.37;100580.86;109321;1254;64997;-71
2023/08/19 17:55:21;;;;;;;5.20;4.70;;;;;;;28.29;52.53;100582.75;109266;1256;60590;-69
2023/08/19 17:57:50;;;;;;;9.80;5.30;;;;;;;28.21;52.90;100582.48;109239;1256;62501;-70
2023/08/19 18:00:18;;;;;;;9.30;5.10;;;;;;;28.14;53.28;100582.02;109250;1256;58123;-70
2023/08/19 18:02:45;;;;;;;6.40;5.20;;;;;;;28.07;53.43;100583.79;109266;1256;58274;-70
2023/08/19 18:05:13;;;;;;;7.10;5.20;;;;;;;28.00;53.79;100582.30;109258;1256;65893;-70
2023/08/19 18:07:41;;;;;;;8.00;5.70;;;;;;;27.93;53.99;100581.36;109281;1255;59175;-70
2023/08/19 18:10:09;;;;;;;9.60;5.60;;;;;;;27.85;54.31;100584.48;109213;1256;63735;-69
2023/08/19 18:12:37;;;;;;;7.30;5.30;;;;;;;27.78;54.61;100583.39;109235;1256;58150;-70
2023/08/19 18:15:05;;;;;;;9.10;5.60;;;;;;;27.71;54.80;100583.24;109289;1256;58033;-70
2023/08/19 18:17:33;;;;;;;5.90;4.90;;;;;;;27.64;54.91;100585.32;109274;1256;63728;-71
2023/08/19 18:20:01;;;;;;;8.50;5.70;;;;;;;27.58;55.28;100579.78;109265;1255;58201;-69
2023/08/19 18:22:28;;;;;;;10.70;5.60;;;;;;;27.54;55.44;100578.90;109275;1255;62706;-68
2023/08/19 18:24:57;;;;;;;7.80;5.30;;;;;;;27.47;55.67;100581.02;109224;1257;58171;-69
2023/08/19 18:27:25;;;;;;;7.80;6.00;;;;;;;27.39;55.85;100578.91;109286;1256;58223;-69
2023/08/19 18:29:53;;;;;;;6.90;5.70;;;;;;;27.32;56.04;100577.19;109253;1256;64977;-70
2023/08/19 18:32:21;;;;;;;11.30;5.90;;;;;;;27.25;56.21;100581.66;109149;1255;58157;-70
2023/08/19 18:34:48;;;;;;;6.90;5.60;;;;;;;27.18;56.49;100587.02;109264;1255;62496;-70
2023/08/19 18:37:16;;;;;;;15.20;6.00;;;;;;;27.11;56.68;100585.77;109185;1256;58135;-70
2023/08/19 18:39:44;;;;;;;7.30;5.80;;;;;;;27.03;56.89;100582.39;109191;1256;57998;-71
2023/08/19 18:42:12;;;;;;;8.20;5.70;;;;;;;26.97;57.07;100585.59;109220;1256;63712;-70
2023/08/19 18:44:39;;;;;;;7.60;5.90;;;;;;;26.92;57.22;100585.60;109264;1256;58198;-71
2023/08/19 18:47:07;;;;;;;6.60;5.90;;;;;;;26.86;57.32;100583.08;109147;1255;63754;-69
2023/08/19 18:49:35;;;;;;;9.90;6.20;;;;;;;26.80;57.41;100582.50;109291;1255;58097;-68
2023/08/19 18:52:03;;;;;;;8.00;5.50;;;;;;;26.74;57.52;100581.40;109248;1256;58094;-70
2023/08/19 18:54:34;;;;;;;8.90;6.10;;;;;;;26.68;57.74;100578.25;109154;1256;65023;-70
2023/08/19 18:57:05;;;;;;;8.60;6.00;;;;;;;26.64;57.85;100578.17;109176;1256;58219;-70
2023/08/19 18:59:37;;;;;;;10.60;6.20;;;;;;;26.60;58.02;100578.73;109180;1256;65909;-71
2023/08/19 19:02:08;;;;;;;8.70;5.70;;;;;;;26.54;58.15;100578.88;109182;1256;58155;-74
2023/08/19 19:04:39;;;;;;;6.70;5.90;;;;;;;26.49;58.29;100583.04;109222;1255;58143;-70
2023/08/19 19:07:08;;;;;;;8.60;5.90;;;;;;;26.44;58.54;100580.79;109154;1256;63621;-71
2023/08/19 19:09:38;;;;;;;8.10;5.70;;;;;;;26.40;58.50;100581.56;109137;1256;58206;-70
2023/08/19 19:12:08;;;;;;;7.30;5.70;;;;;;;26.37;58.40;100581.77;109204;1256;63830;-71
2023/08/19 19:14:39;;;;;;;7.30;5.90;;;;;;;26.32;58.61;100581.30;109269;1256;58577;-71
2023/08/19 19:17:10;;;;;;;9.80;6.20;;;;;;;26.30;58.61;100579.61;109180;1256;58195;-70
2023/08/19 19:19:40;;;;;;;6.70;5.60;;;;;;;26.31;58.51;100576.27;109153;1256;64107;-70
2023/08/19 19:22:10;;;;;;;11.20;5.20;;;;;;;26.35;58.14;100578.92;109209;1256;58163;-69
2023/08/19 19:24:41;;;;;;;7.80;5.70;;;;;;;26.41;57.67;100577.73;109213;1256;63715;-68
2023/08/19 19:27:10;;;;;;;9.40;5.50;;;;;;;26.47;57.31;100576.43;109309;1256;58203;-69
2023/08/19 19:29:40;;;;;;;7.80;5.10;;;;;;;26.55;56.90;100575.48;109173;1256;58147;-70
2023/08/19 19:32:10;;;;;;;13.50;5.20;;;;;;;26.64;56.35;100577.88;109203;1255;64972;-71
2023/08/19 19:34:41;;;;;;;9.20;5.40;;;;;;;26.73;56.08;100576.66;109226;1256;58278;-70
2023/08/19 19:37:11;;;;;;;7.50;5.40;;;;;;;26.79;55.84;100579.61;109158;1256;63872;-70
2023/08/19 19:39:40;;;;;;;7.60;5.00;;;;;;;26.83;55.85;100579.48;109130;1257;58193;-70
2023/08/19 19:42:11;;;;;;;6.60;5.40;;;;;;;26.89;55.71;100580.09;109206;1256;58073;-70
2023/08/19 19:44:40;;;;;;;5.90;5.30;;;;;;;26.95;55.27;100578.32;109136;1256;64938;-70
2023/08/19 19:47:11;;;;;;;11.90;5.70;;;;;;;27.00;55.16;100581.48;109188;1256;58985;-70
2023/08/19 19:49:41;;;;;;;9.50;5.60;;;;;;;27.01;55.20;100577.54;109155;1256;64859;-70
2023/08/19 19:52:12;;;;;;;9.10;5.90;;;;;;;27.00;55.20;100577.60;109116;1259;58217;-70
2023/08/19 20:02:16;;;;;;;6.10;5.50;;;;;;;26.86;55.77;100576.59;102560;1292;599900;-69
2023/08/19 20:04:44;;;;;;;7.30;5.20;;;;;;;26.81;55.95;100578.96;105493;1260;59164;-70
2023/08/19 20:07:12;;;;;;;6.90;5.50;;;;;;;26.72;56.21;100579.13;105254;1260;59426;-69
2023/08/19 20:09:39;;;;;;;8.20;5.40;;;;;;;26.64;56.38;100580.54;105315;1265;63361;-69
2023/08/19 20:12:07;;;;;;;7.20;5.00;;;;;;;26.60;56.46;100582.53;105265;1259;59197;-70
2023/08/19 20:14:34;;;;;;;10.00;5.40;;;;;;;26.56;56.49;100584.54;105255;1260;63887;-68
2023/08/19 20:17:01;;;;;;;8.70;5.70;;;;;;;26.50;56.68;100585.90;105366;1258;262121;-69
2023/08/19 20:19:31;;;;;;;8.50;5.60;;;;;;;26.44;56.81;100585.04;105738;1256;59244;-69
2023/08/19 20:21:59;;;;;;;8.20;6.00;;;;;;;26.38;57.06;100581.42;105469;1262;62060;-70
2023/08/19 20:24:27;;;;;;;10.30;5.50;;;;;;;26.31;57.22;100585.27;105559;1256;59369;-69
2023/08/19 20:26:55;;;;;;;9.10;5.60;;;;;;;26.24;57.42;100588.23;105456;1259;63691;-69
2023/08/19 20:29:59;;;;;;;6.80;5.40;;;;;;;26.22;57.80;100589.64;102248;1294;606434;-68
2023/08/19 20:32:26;;;;;;;6.90;5.70;;;;;;;26.12;58.05;100593.16;105060;1268;59476;-69
2023/08/19 20:34:52;;;;;;;8.60;5.70;;;;;;;26.03;58.29;100590.89;105002;1267;59261;-70
2023/08/19 20:37:19;;;;;;;6.70;5.70;;;;;;;25.93;58.54;100589.90;104850;1267;63575;-69
2023/08/19 20:39:46;;;;;;;9.50;5.90;;;;;;;25.84;58.84;100593.35;105368;1260;59322;-69
2023/08/19 20:42:13;;;;;;;7.30;5.60;;;;;;;25.77;59.05;100595.73;105155;1257;219926;-69
2023/08/19 20:44:40;;;;;;;7.00;5.70;;;;;;;25.67;59.27;100594.25;105611;1260;59282;-69
2023/08/19 20:47:06;;;;;;;7.90;5.80;;;;;;;25.60;59.56;100593.48;105715;1257;59368;-70
2023/08/19 20:49:33;;;;;;;6.00;5.30;;;;;;;25.53;59.73;100595.23;105624;1257;63506;-69
2023/08/19 20:52:00;;;;;;;8.90;5.90;;;;;;;25.46;60.04;100589.18;105666;1258;59363;-69
2023/08/19 20:54:26;;;;;;;9.50;5.80;;;;;;;25.39;60.29;100590.08;105407;1258;62599;-69
2023/08/19 20:56:53;;;;;;;7.10;5.20;;;;;;;25.33;60.43;100590.60;105434;1257;59766;-69
2023/08/19 20:59:22;;;;;;;6.40;5.70;;;;;;;25.28;60.59;100588.36;105641;1256;59619;-69
2023/08/19 21:01:49;;;;;;;6.70;5.50;;;;;;;25.24;60.78;100588.13;105453;1262;64423;-68
2023/08/19 21:04:16;;;;;;;7.00;5.70;;;;;;;25.19;60.93;100586.65;105435;1260;67136;-69
2023/08/19 21:06:43;;;;;;;8.50;5.90;;;;;;;25.16;60.99;100589.06;105561;1257;62603;-69
2023/08/19 21:09:10;;;;;;;8.20;5.90;;;;;;;25.11;61.21;100588.04;105558;1256;59733;-70
2023/08/19 21:11:37;;;;;;;7.30;6.00;;;;;;;25.06;61.39;100590.13;105394;1262;59634;-70
2023/08/19 21:14:05;;;;;;;7.90;5.60;;;;;;;25.02;61.63;100592.38;105656;1260;65791;-71
2023/08/19 21:16:31;;;;;;;6.40;5.60;;;;;;;24.96;61.80;100592.16;105538;1260;59666;-70
2023/08/19 21:18:58;;;;;;;10.20;5.50;;;;;;;24.91;61.97;100590.50;106870;1257;64098;-70
2023/08/19 21:21:25;;;;;;;6.30;5.40;;;;;;;24.89;62.06;100594.90;105570;1260;59641;-69
2023/08/19 21:23:51;;;;;;;8.10;5.90;;;;;;;24.89;62.18;100593.08;105952;1257;59685;-70
2023/08/19 21:26:18;;;;;;;6.30;5.50;;;;;;;24.88;62.34;100591.91;105545;1263;64529;-68
2023/08/19 21:28:45;;;;;;;7.30;5.80;;;;;;;24.85;62.52;100591.63;105779;1257;59714;-69
2023/08/19 21:31:12;;;;;;;8.90;5.70;;;;;;;24.81;62.67;100591.52;105369;1259;64062;-68
2023/08/19 21:33:39;;;;;;;8.40;6.00;;;;;;;24.77;62.88;100589.59;105610;1260;59528;-69
2023/08/19 21:36:06;;;;;;;8.70;5.70;;;;;;;24.75;63.07;100587.27;105466;1258;59661;-70
2023/08/19 21:38:33;;;;;;;7.20;5.50;;;;;;;24.72;63.16;100587.20;105374;1257;64509;-69
2023/08/19 21:41:00;;;;;;;8.00;5.90;;;;;;;24.68;63.31;100585.37;105546;1258;59693;-69
2023/08/19 21:43:26;;;;;;;6.70;6.10;;;;;;;24.64;63.46;100581.40;105536;1261;62703;-70
2023/08/19 21:45:57;;;;;;;7.10;6.00;;;;;;;24.61;63.53;100580.85;105500;1256;59659;-67
2023/08/19 21:48:24;;;;;;;8.30;6.00;;;;;;;24.59;63.55;100579.30;105542;1256;59865;-69
2023/08/19 21:50:51;;;;;;;6.50;5.80;;;;;;;24.58;63.61;100578.97;105582;1261;66166;-69
2023/08/19 21:53:18;;;;;;;9.20;5.70;;;;;;;24.55;63.73;100579.35;105450;1256;59635;-69
2023/08/19 21:55:45;;;;;;;7.60;5.80;;;;;;;24.52;63.71;100578.08;105895;1261;64074;-69
2023/08/19 21:58:11;;;;;;;8.40;6.20;;;;;;;24.51;63.74;100576.48;105543;1262;59629;-71
2023/08/19 22:00:38;;;;;;;8.60;5.90;;;;;;;24.49;63.53;100576.35;105513;1257;59739;-71
2023/08/19 22:03:05;;;;;;;6.90;5.80;;;;;;;24.48;63.71;100575.48;105539;1256;63008;-68
2023/08/19 22:05:41;;;;;;;8.50;5.80;;;;;;;24.47;63.67;100578.48;105540;1260;59700;-69
2023/08/19 22:08:08;;;;;;;11.20;6.20;;;;;;;24.46;63.68;100576.12;105684;1258;63991;-70
2023/08/19 22:10:35;;;;;;;10.90;6.10;;;;;;;24.44;63.78;100576.91;105478;1256;59619;-70
2023/08/19 22:13:02;;;;;;;10.20;6.40;;;;;;;24.42;63.63;100576.09;105626;1257;59811;-68
2023/08/19 22:15:29;;;;;;;9.70;5.70;;;;;;;24.41;63.69;100576.81;105556;1257;64861;-69
2023/08/19 22:17:56;;;;;;;10.50;5.90;;;;;;;24.38;63.64;100576.31;105677;1260;59759;-68
2023/08/19 22:20:22;;;;;;;7.60;6.40;;;;;;;24.35;63.67;100575.27;105422;1260;62909;-70
2023/08/19 22:22:50;;;;;;;10.40;6.40;;;;;;;24.31;63.83;100576.00;105624;1260;59529;-70
2023/08/19 22:25:16;;;;;;;8.60;6.10;;;;;;;24.25;63.94;100573.34;105506;1256;59239;-68